Time;durP1;ratioP1;P1;durP2;ratioP2;P2;SDS_P1;SDS_P2;PMS_P1;PMS_P2;Temp;Humidity;BMP_temperature;BMP_pressure;BME280_temperature;BME280_humidity;BME280_pressure;Samples;Min_cycle;Max_cycle;Signal;HPM_P1;HPM_P2
2021/09/14 00:00:34;;;;;;;9.50;6.53;;;18.80;72.20;;;;;;5045903;28;20036;-55
2021/09/14 00:03:19;;;;;;;9.00;6.20;;;18.80;72.10;;;;;;5046236;28;20394;-54
2021/09/14 00:06:03;;;;;;;8.45;6.40;;;18.80;72.20;;;;;;5045676;28;20359;-53
2021/09/14 00:08:47;;;;;;;7.93;6.88;;;18.80;72.00;;;;;;5045672;28;20083;-55
2021/09/14 00:11:33;;;;;;;10.57;6.68;;;18.80;71.90;;;;;;5045627;28;20056;-54
2021/09/14 00:14:17;;;;;;;9.55;6.90;;;18.80;71.90;;;;;;5045446;28;20055;-55
2021/09/14 00:17:02;;;;;;;9.98;7.00;;;18.80;71.90;;;;;;5045511;28;20035;-54
2021/09/14 00:19:46;;;;;;;8.63;6.40;;;18.70;72.00;;;;;;5045437;28;20432;-55
2021/09/14 00:22:30;;;;;;;8.82;6.97;;;18.70;72.10;;;;;;5045415;28;20029;-54
2021/09/14 00:25:15;;;;;;;9.15;6.63;;;18.70;72.00;;;;;;5045362;28;20255;-55
2021/09/14 00:27:59;;;;;;;8.80;6.60;;;18.70;72.00;;;;;;5045765;28;20068;-53
2021/09/14 00:30:43;;;;;;;8.25;6.07;;;18.70;72.00;;;;;;5045349;28;20056;-54
2021/09/14 00:33:28;;;;;;;8.52;6.13;;;18.70;72.10;;;;;;5045284;28;20043;-55
2021/09/14 00:36:13;;;;;;;9.02;6.18;;;18.60;72.00;;;;;;5045148;28;20033;-56
2021/09/14 00:38:57;;;;;;;9.05;6.00;;;18.60;72.20;;;;;;5045070;28;20053;-54
2021/09/14 00:41:42;;;;;;;9.20;6.50;;;18.60;72.20;;;;;;5045054;28;20037;-55
2021/09/14 00:44:26;;;;;;;8.25;6.10;;;18.60;72.20;;;;;;5045059;28;20055;-56
2021/09/14 00:47:10;;;;;;;8.10;6.55;;;18.50;72.30;;;;;;5044967;28;20103;-55
2021/09/14 00:49:54;;;;;;;9.00;6.30;;;18.50;72.30;;;;;;5044821;28;20035;-56
2021/09/14 00:52:39;;;;;;;8.63;5.78;;;18.60;72.10;;;;;;5043971;28;20224;-55
2021/09/14 00:55:23;;;;;;;7.47;5.95;;;18.50;72.20;;;;;;5044616;28;20121;-55
2021/09/14 00:58:07;;;;;;;8.98;6.38;;;18.50;72.20;;;;;;5044762;28;20048;-52
2021/09/14 01:00:51;;;;;;;10.05;6.45;;;18.40;72.40;;;;;;5045119;28;20200;-54
2021/09/14 01:03:36;;;;;;;8.07;6.78;;;18.40;72.50;;;;;;5044787;28;20092;-55
2021/09/14 01:06:20;;;;;;;9.43;6.25;;;18.40;72.40;;;;;;5045334;28;20040;-56
2021/09/14 01:09:05;;;;;;;10.48;5.82;;;18.40;72.20;;;;;;5044485;28;20051;-55
2021/09/14 01:11:51;;;;;;;6.95;5.85;;;18.50;72.20;;;;;;5029581;28;20080;-55
2021/09/14 01:14:35;;;;;;;7.88;6.15;;;18.40;72.10;;;;;;5044355;28;20072;-52
2021/09/14 01:17:19;;;;;;;8.88;5.80;;;18.40;72.00;;;;;;5044837;28;20041;-54
2021/09/14 01:20:04;;;;;;;7.22;5.80;;;18.40;72.10;;;;;;5042796;28;20033;-55
2021/09/14 01:22:50;;;;;;;7.88;6.30;;;18.30;72.00;;;;;;5044345;28;20052;-55
2021/09/14 01:25:34;;;;;;;10.63;6.32;;;18.30;72.10;;;;;;5044326;28;20029;-54
2021/09/14 01:28:18;;;;;;;7.85;6.40;;;18.30;72.20;;;;;;5044140;28;20033;-55
2021/09/14 01:31:02;;;;;;;7.28;5.70;;;18.30;72.10;;;;;;5044158;28;20024;-49
2021/09/14 01:33:51;;;;;;;8.65;5.75;;;18.30;72.10;;;;;;5044479;28;20037;-54
2021/09/14 01:36:35;;;;;;;7.85;6.13;;;18.20;72.10;;;;;;5044747;28;20044;-55
2021/09/14 01:39:19;;;;;;;7.35;5.80;;;18.20;72.10;;;;;;5044337;28;20067;-55
2021/09/14 01:42:03;;;;;;;7.68;5.80;;;18.20;72.10;;;;;;5044382;28;20028;-53
2021/09/14 01:44:48;;;;;;;7.50;5.30;;;18.10;72.10;;;;;;5044019;28;20033;-52
2021/09/14 01:47:33;;;;;;;7.68;5.90;;;18.20;72.20;;;;;;5044187;28;20064;-55
2021/09/14 01:50:17;;;;;;;8.98;6.07;;;18.10;72.10;;;;;;5044123;28;20076;-54
2021/09/14 01:53:02;;;;;;;6.95;5.57;;;18.10;72.10;;;;;;5043956;28;20335;-55
2021/09/14 01:55:46;;;;;;;7.93;5.78;;;18.10;72.20;;;;;;5043709;28;20088;-55
2021/09/14 01:58:30;;;;;;;10.40;5.93;;;18.10;72.20;;;;;;5043746;28;20097;-54
2021/09/14 02:01:25;;;;;;;8.52;5.88;;;18.10;72.10;;;;;;5043752;28;20032;-52
2021/09/14 02:04:20;;;;;;;7.85;5.82;;;18.10;72.20;;;;;;5043658;28;20064;-54
2021/09/14 02:07:29;;;;;;;12.13;6.10;;;18.00;72.20;;;;;;5043577;28;20064;-55
2021/09/14 02:44:08;;;;;;;11.55;6.28;;;17.80;72.50;;;;;;5047657;28;20087;-55
2021/09/14 02:56:17;;;;;;;8.32;5.63;;;17.80;72.40;;;;;;5047202;28;20036;-55
2021/09/14 02:59:11;;;;;;;11.20;5.43;;;17.70;72.50;;;;;;5046923;28;20040;-54
2021/09/14 03:01:56;;;;;;;7.15;5.68;;;17.70;72.30;;;;;;5047192;28;20098;-55
2021/09/14 03:04:40;;;;;;;7.80;5.97;;;17.70;72.30;;;;;;5046847;28;20030;-53
2021/09/14 03:07:24;;;;;;;8.15;5.50;;;17.60;72.30;;;;;;5046764;28;20367;-54
2021/09/14 03:10:09;;;;;;;7.88;5.82;;;17.70;72.20;;;;;;5046694;28;20068;-55
2021/09/14 03:12:53;;;;;;;7.55;5.80;;;17.70;72.30;;;;;;5047085;28;20089;-55
2021/09/14 03:15:37;;;;;;;6.60;5.00;;;17.60;72.40;;;;;;5046577;28;20040;-55
2021/09/14 03:18:21;;;;;;;8.55;5.13;;;17.60;72.40;;;;;;5047260;28;20056;-55
2021/09/14 03:21:06;;;;;;;7.72;5.55;;;17.60;72.40;;;;;;5046554;28;20067;-56
2021/09/14 03:23:50;;;;;;;8.68;5.30;;;17.50;72.50;;;;;;5046397;28;20233;-53
2021/09/14 03:26:35;;;;;;;6.45;5.55;;;17.60;72.50;;;;;;5046477;28;20068;-55
2021/09/14 03:29:20;;;;;;;8.30;5.65;;;17.60;72.40;;;;;;5046998;28;20039;-51
2021/09/14 03:32:04;;;;;;;6.68;5.65;;;17.40;72.30;;;;;;5041272;28;20133;-54
2021/09/14 03:34:48;;;;;;;8.43;5.63;;;17.50;72.40;;;;;;5051599;28;20044;-55
2021/09/14 03:37:32;;;;;;;6.53;5.78;;;17.50;72.40;;;;;;5046277;28;20132;-54
2021/09/14 03:40:16;;;;;;;6.47;5.47;;;17.40;72.40;;;;;;5046258;28;20024;-54
2021/09/14 03:43:01;;;;;;;7.25;5.50;;;17.40;72.50;;;;;;5046658;28;20032;-55
2021/09/14 03:45:48;;;;;;;7.30;5.45;;;17.40;72.30;;;;;;5046133;28;20048;-55
2021/09/14 03:48:33;;;;;;;5.65;4.88;;;17.40;72.40;;;;;;5046189;28;20221;-55
2021/09/14 03:51:17;;;;;;;8.57;5.50;;;17.40;72.50;;;;;;5045616;28;20379;-54
2021/09/14 03:54:01;;;;;;;10.00;5.40;;;17.40;72.40;;;;;;5046297;28;20392;-55
2021/09/14 03:56:45;;;;;;;7.13;5.22;;;17.40;72.50;;;;;;5046289;28;20028;-55
2021/09/14 03:59:30;;;;;;;7.22;5.50;;;17.40;72.40;;;;;;5045135;28;20083;-54
2021/09/14 04:02:38;;;;;;;8.70;5.32;;;17.30;72.40;;;;;;5046068;28;20099;-55
2021/09/14 04:05:31;;;;;;;7.22;5.60;;;17.30;72.40;;;;;;5045923;28;20028;-53
2021/09/14 04:10:59;;;;;;;9.00;5.72;;;17.30;72.50;;;;;;5046026;28;20262;-55
2021/09/14 04:13:43;;;;;;;8.10;5.63;;;17.30;72.60;;;;;;5045556;28;20097;-54
2021/09/14 04:16:27;;;;;;;6.50;5.30;;;17.30;72.60;;;;;;5045570;28;20032;-55
2021/09/14 04:19:12;;;;;;;8.63;6.10;;;17.30;72.60;;;;;;5045585;28;20255;-55
2021/09/14 04:21:56;;;;;;;11.77;5.55;;;17.30;72.50;;;;;;5045031;28;20221;-54
2021/09/14 04:24:40;;;;;;;8.60;5.57;;;17.30;72.60;;;;;;5045462;28;20040;-55
2021/09/14 04:27:24;;;;;;;10.70;7.32;;;17.30;72.60;;;;;;5045884;28;20044;-56
2021/09/14 04:30:09;;;;;;;7.32;5.32;;;17.30;72.60;;;;;;5045323;28;20033;-53
2021/09/14 04:32:53;;;;;;;10.30;5.43;;;17.30;72.50;;;;;;5045205;28;20052;-54
2021/09/14 04:35:38;;;;;;;6.95;5.22;;;17.20;72.50;;;;;;5045096;28;20102;-55
2021/09/14 04:38:22;;;;;;;6.75;5.00;;;17.20;72.50;;;;;;5044999;28;20083;-54
2021/09/14 04:41:06;;;;;;;8.07;5.05;;;17.30;72.40;;;;;;5045109;28;20048;-55
2021/09/14 04:43:50;;;;;;;6.65;5.20;;;17.30;72.50;;;;;;5044990;28;20387;-52
2021/09/14 04:46:35;;;;;;;6.88;5.10;;;17.20;72.60;;;;;;5044736;28;20044;-54
2021/09/14 04:49:19;;;;;;;8.30;5.45;;;17.20;72.50;;;;;;5044901;28;20052;-55
2021/09/14 04:52:07;;;;;;;6.68;5.40;;;17.20;72.50;;;;;;5044794;28;20024;-52
2021/09/14 04:54:51;;;;;;;7.32;5.28;;;17.20;72.50;;;;;;5044035;28;20044;-55
2021/09/14 04:57:35;;;;;;;6.68;5.40;;;17.20;72.40;;;;;;5044848;28;20088;-52
2021/09/14 05:00:20;;;;;;;8.25;5.57;;;17.10;72.40;;;;;;5045215;28;20072;-54
2021/09/14 05:03:04;;;;;;;8.02;5.82;;;17.20;72.40;;;;;;5044920;28;20040;-55
2021/09/14 05:05:48;;;;;;;6.47;5.20;;;17.10;72.60;;;;;;5043683;28;20331;-55
2021/09/14 05:08:34;;;;;;;11.52;5.07;;;17.10;72.70;;;;;;5044604;28;20032;-56
2021/09/14 05:11:19;;;;;;;8.15;5.57;;;17.10;72.90;;;;;;5043424;28;20128;-55
2021/09/14 05:14:03;;;;;;;5.75;5.00;;;17.10;73.00;;;;;;5044235;28;20263;-51
2021/09/14 05:16:54;;;;;;;7.45;5.47;;;17.10;73.00;;;;;;5067401;28;20374;-53
2021/09/14 05:19:38;;;;;;;10.63;5.40;;;17.20;73.00;;;;;;5041107;28;20072;-54
2021/09/14 05:22:30;;;;;;;9.85;5.47;;;17.10;73.10;;;;;;5040928;28;20041;-51
2021/09/14 05:25:14;;;;;;;;;;;17.20;73.30;;;;;;5041280;28;20021;-50
2021/09/14 05:27:58;;;;;;;7.53;5.55;;;17.10;73.80;;;;;;5047810;28;19964;-53
2021/09/14 05:30:45;;;;;;;8.20;5.60;;;17.20;73.40;;;;;;5040867;28;20261;-51
2021/09/14 05:33:30;;;;;;;7.88;5.50;;;17.20;73.50;;;;;;5040706;28;20035;-54
2021/09/14 05:36:14;;;;;;;11.10;5.22;;;17.20;73.80;;;;;;5040160;28;20049;-50
2021/09/14 05:38:58;;;;;;;7.40;5.00;;;17.30;73.80;;;;;;5041010;28;20033;-52
2021/09/14 05:41:43;;;;;;;8.32;5.40;;;17.30;73.80;;;;;;5040880;28;20048;-54
2021/09/14 05:44:27;;;;;;;8.73;5.75;;;17.30;73.80;;;;;;5040776;28;20029;-54
2021/09/14 05:47:11;;;;;;;12.48;5.50;;;17.40;73.90;;;;;;5040524;28;20076;-54
2021/09/14 05:49:58;;;;;;;10.50;5.30;;;17.40;74.00;;;;;;5040322;28;20040;-52
2021/09/14 05:52:42;;;;;;;11.57;6.15;;;17.50;74.00;;;;;;5040361;28;20031;-54
2021/09/14 05:55:27;;;;;;;8.43;5.57;;;17.50;74.20;;;;;;5040081;28;20048;-53
2021/09/14 05:58:11;;;;;;;9.75;5.30;;;17.60;74.30;;;;;;5040147;28;20267;-52
2021/09/14 06:00:55;;;;;;;7.95;5.57;;;17.60;74.40;;;;;;5040755;28;20364;-52
2021/09/14 06:03:40;;;;;;;7.38;5.57;;;17.70;74.20;;;;;;5040323;28;20041;-43
2021/09/14 06:06:24;;;;;;;9.98;5.80;;;17.70;74.10;;;;;;5039645;28;20033;-42
2021/09/14 06:09:09;;;;;;;8.48;5.57;;;17.80;74.20;;;;;;5040322;28;20033;-42
2021/09/14 06:11:53;;;;;;;9.43;5.60;;;17.80;74.40;;;;;;5040097;28;20068;-42
2021/09/14 06:14:37;;;;;;;8.15;5.93;;;17.90;74.30;;;;;;5039801;28;20040;-42
2021/09/14 06:17:21;;;;;;;13.63;5.82;;;18.00;74.70;;;;;;5039883;28;20084;-43
2021/09/14 06:20:06;;;;;;;7.85;5.80;;;18.10;74.50;;;;;;5039796;28;20395;-42
2021/09/14 06:22:50;;;;;;;12.50;6.05;;;18.20;74.40;;;;;;5039722;28;20033;-44
2021/09/14 06:25:37;;;;;;;7.90;5.80;;;18.30;74.30;;;;;;5039561;28;20040;-43
2021/09/14 06:28:20;;;;;;;9.45;5.32;;;18.60;74.20;;;;;;5026018;28;20098;-42
2021/09/14 06:31:05;;;;;;;15.65;6.03;;;18.80;73.40;;;;;;5026469;28;20025;-43
2021/09/14 06:33:49;;;;;;;7.68;5.53;;;19.50;71.60;;;;;;5026898;28;20032;-43
2021/09/14 06:36:33;;;;;;;9.40;5.32;;;20.20;69.70;;;;;;5026488;28;20084;-42
2021/09/14 06:39:17;;;;;;;7.78;5.45;;;20.80;68.40;;;;;;5026764;28;20339;-45
2021/09/14 06:42:03;;;;;;;9.32;5.40;;;21.50;65.90;;;;;;5026748;28;20029;-42
2021/09/14 06:44:47;;;;;;;11.75;5.13;;;22.30;63.10;;;;;;5026291;28;20036;-42
2021/09/14 06:47:32;;;;;;;8.88;5.30;;;22.80;62.40;;;;;;5026437;28;20076;-44
2021/09/14 06:50:21;;;;;;;9.68;5.35;;;23.60;60.00;;;;;;5026321;28;20037;-43
2021/09/14 06:53:05;;;;;;;7.47;4.93;;;24.20;58.30;;;;;;5025986;28;20084;-43
2021/09/14 06:55:49;;;;;;;11.85;4.65;;;24.40;57.70;;;;;;5025923;28;20441;-43
2021/09/14 06:58:35;;;;;;;6.25;4.40;;;25.30;55.50;;;;;;5025835;28;20148;-43
2021/09/14 07:01:19;;;;;;;6.00;4.40;;;25.80;54.40;;;;;;5025984;28;20037;-44
2021/09/14 07:04:04;;;;;;;7.78;4.43;;;25.50;55.10;;;;;;5024795;28;20028;-46
2021/09/14 07:06:50;;;;;;;6.03;4.10;;;25.50;55.60;;;;;;5026311;28;20025;-43
2021/09/14 07:09:36;;;;;;;6.20;4.10;;;25.60;55.50;;;;;;5025943;28;20056;-45
2021/09/14 07:12:21;;;;;;;8.85;4.38;;;25.80;54.60;;;;;;5026180;28;20056;-44
2021/09/14 07:15:06;;;;;;;5.75;3.92;;;25.70;55.20;;;;;;5025374;28;20118;-45
2021/09/14 07:17:50;;;;;;;8.48;4.03;;;26.20;54.30;;;;;;5025989;28;20263;-43
2021/09/14 07:20:34;;;;;;;6.03;3.90;;;26.50;53.60;;;;;;5025791;28;20053;-44
2021/09/14 07:23:20;;;;;;;5.53;3.90;;;27.00;52.60;;;;;;5025439;28;20102;-45
2021/09/14 07:26:04;;;;;;;5.28;4.00;;;27.20;51.80;;;;;;5025425;28;20048;-44
2021/09/14 07:28:48;;;;;;;4.75;3.50;;;27.50;50.50;;;;;;5025495;28;20037;-46
2021/09/14 07:31:33;;;;;;;5.68;3.88;;;27.60;50.50;;;;;;5025195;28;20021;-44
2021/09/14 07:34:17;;;;;;;8.75;4.15;;;27.50;51.00;;;;;;5024891;28;20116;-43
2021/09/14 07:37:03;;;;;;;6.13;3.90;;;27.50;50.70;;;;;;5024528;28;20218;-45
2021/09/14 07:39:46;;;;;;;5.85;3.90;;;27.40;50.50;;;;;;5024378;28;20113;-44
2021/09/14 07:42:31;;;;;;;6.28;4.03;;;27.60;50.30;;;;;;5025313;28;20040;-45
2021/09/14 07:45:15;;;;;;;6.93;3.95;;;27.60;50.40;;;;;;5025629;28;20087;-44
2021/09/14 07:48:00;;;;;;;10.25;4.43;;;27.80;50.00;;;;;;5024997;28;20036;-44
2021/09/14 07:50:44;;;;;;;5.88;4.25;;;28.10;49.50;;;;;;5025396;28;20052;-43
2021/09/14 07:53:28;;;;;;;10.38;4.03;;;28.30;48.80;;;;;;5025285;28;20226;-44
2021/09/14 07:56:13;;;;;;;7.72;3.92;;;27.80;50.20;;;;;;5025039;28;20355;-44
2021/09/14 07:58:57;;;;;;;4.88;3.78;;;27.60;51.10;;;;;;5025065;28;20099;-45
2021/09/14 08:01:41;;;;;;;4.68;3.70;;;27.20;51.50;;;;;;5024796;28;20033;-46
2021/09/14 08:04:25;;;;;;;4.80;3.78;;;26.90;52.10;;;;;;5024817;28;20040;-44
2021/09/14 08:07:10;;;;;;;7.38;4.07;;;26.70;52.60;;;;;;5024640;28;20032;-45
2021/09/14 08:09:54;;;;;;;6.65;3.83;;;26.60;53.20;;;;;;5025155;28;20347;-43
2021/09/14 08:12:38;;;;;;;5.68;4.20;;;26.40;53.20;;;;;;5024784;28;20033;-44
2021/09/14 08:15:22;;;;;;;5.30;3.97;;;26.10;53.40;;;;;;5024698;28;20145;-43
2021/09/14 08:18:06;;;;;;;6.28;3.88;;;26.00;53.50;;;;;;5024967;28;20129;-44
2021/09/14 08:20:51;;;;;;;5.88;3.88;;;25.80;54.90;;;;;;5024450;28;20029;-44
2021/09/14 08:23:35;;;;;;;6.43;4.32;;;25.60;55.60;;;;;;5024291;28;20029;-46
2021/09/14 08:26:19;;;;;;;5.60;3.83;;;25.50;55.40;;;;;;5023396;28;20233;-43
2021/09/14 08:29:04;;;;;;;5.88;4.00;;;25.60;55.60;;;;;;5024536;28;20029;-43
2021/09/14 08:31:47;;;;;;;7.80;4.10;;;25.40;55.60;;;;;;5024287;28;20391;-43
2021/09/14 08:34:32;;;;;;;7.70;3.90;;;25.30;56.50;;;;;;5024250;28;20060;-44
2021/09/14 08:37:16;;;;;;;5.78;4.10;;;25.30;57.00;;;;;;5024305;28;20098;-46
2021/09/14 08:40:00;;;;;;;5.10;4.03;;;25.20;56.60;;;;;;5024487;28;20072;-44
2021/09/14 08:42:45;;;;;;;5.03;3.85;;;25.20;56.70;;;;;;5024354;28;20224;-43
2021/09/14 08:45:29;;;;;;;8.88;3.95;;;25.10;56.80;;;;;;5024156;28;20052;-43
2021/09/14 08:48:14;;;;;;;6.85;3.90;;;25.10;57.80;;;;;;5023535;28;20037;-46
2021/09/14 08:50:58;;;;;;;6.35;3.90;;;25.20;58.10;;;;;;5023889;28;20084;-43
2021/09/14 08:53:42;;;;;;;5.28;4.07;;;25.20;58.40;;;;;;5024331;28;20453;-44
2021/09/14 08:56:26;;;;;;;6.45;3.88;;;25.20;58.40;;;;;;5023918;28;20288;-44
2021/09/14 08:59:11;;;;;;;5.57;3.75;;;25.20;56.70;;;;;;5023853;28;20260;-46
2021/09/14 09:01:59;;;;;;;7.80;4.00;;;25.30;57.40;;;;;;5023842;28;20064;-44
2021/09/14 09:04:57;;;;;;;5.75;3.95;;;25.40;57.40;;;;;;5022896;28;20105;-44
2021/09/14 09:07:41;;;;;;;7.30;3.90;;;25.50;57.10;;;;;;5023834;28;20360;-45
2021/09/14 09:10:25;;;;;;;6.00;4.70;;;25.60;57.70;;;;;;5024075;28;20083;-43
2021/09/14 09:13:10;;;;;;;5.57;4.28;;;25.70;58.10;;;;;;5023711;28;20221;-44
2021/09/14 09:15:54;;;;;;;6.63;4.15;;;25.70;58.30;;;;;;5024040;28;20372;-44
2021/09/14 09:18:48;;;;;;;9.80;3.97;;;25.80;58.00;;;;;;5023887;28;20053;-44
2021/09/14 09:21:34;;;;;;;7.93;4.00;;;25.90;56.90;;;;;;5023672;28;20061;-44
2021/09/14 09:24:18;;;;;;;5.38;4.05;;;25.90;57.30;;;;;;5023543;28;20056;-44
2021/09/14 09:27:10;;;;;;;9.75;4.05;;;26.10;58.10;;;;;;5022698;28;20133;-44
2021/09/14 09:30:05;;;;;;;7.55;4.57;;;26.20;57.80;;;;;;5024172;28;20048;-44
2021/09/14 09:32:49;;;;;;;4.90;3.78;;;26.20;54.60;;;;;;5022528;28;20080;-45
2021/09/14 09:35:38;;;;;;;7.75;3.60;;;26.20;54.40;;;;;;5023479;28;20260;-44
2021/09/14 09:38:23;;;;;;;5.40;3.80;;;26.20;55.40;;;;;;5023685;28;20079;-45
2021/09/14 09:41:07;;;;;;;9.50;4.03;;;26.30;55.50;;;;;;5023397;28;20033;-46
2021/09/14 09:44:01;;;;;;;6.15;3.70;;;26.50;53.70;;;;;;5023501;28;20351;-47
2021/09/14 09:46:56;;;;;;;4.43;3.40;;;26.70;54.10;;;;;;5023537;28;20052;-47
2021/09/14 09:49:40;;;;;;;4.10;3.55;;;26.80;54.50;;;;;;5023471;28;20073;-45
2021/09/14 09:52:24;;;;;;;6.72;3.63;;;26.80;54.70;;;;;;5023406;28;20075;-44
2021/09/14 09:55:09;;;;;;;4.78;3.45;;;26.90;54.30;;;;;;5022271;28;20436;-44
2021/09/14 09:57:53;;;;;;;5.43;3.97;;;27.00;52.30;;;;;;5023805;28;20021;-44
2021/09/14 10:00:38;;;;;;;7.78;3.88;;;27.20;52.40;;;;;;5008245;28;20037;-45
2021/09/14 10:03:26;;;;;;;6.65;4.30;;;27.20;53.00;;;;;;5025951;28;20037;-45
2021/09/14 10:06:10;;;;;;;5.18;3.53;;;27.30;52.10;;;;;;5026384;28;20092;-44
2021/09/14 10:08:54;;;;;;;4.65;3.47;;;27.30;52.00;;;;;;5027217;28;20072;-48
2021/09/14 10:11:38;;;;;;;4.97;3.58;;;27.30;51.20;;;;;;5012417;28;20057;-45
2021/09/14 10:14:23;;;;;;;5.30;3.92;;;27.40;52.30;;;;;;5012199;28;20049;-44
2021/09/14 10:17:08;;;;;;;5.00;3.75;;;27.50;53.40;;;;;;5025914;28;20049;-45
2021/09/14 10:19:52;;;;;;;5.07;3.42;;;27.70;53.00;;;;;;5026871;28;20041;-45
2021/09/14 10:22:37;;;;;;;6.03;3.60;;;27.70;53.00;;;;;;5025619;28;20033;-44
2021/09/14 10:25:21;;;;;;;3.80;3.28;;;27.80;52.60;;;;;;5026551;28;20210;-47
2021/09/14 10:28:07;;;;;;;3.88;3.15;;;27.90;50.60;;;;;;5026530;28;20045;-45
2021/09/14 10:30:51;;;;;;;6.95;3.80;;;28.00;51.10;;;;;;5026992;28;20072;-44
2021/09/14 10:33:35;;;;;;;5.85;3.42;;;28.10;50.20;;;;;;5026522;28;20348;-48
2021/09/14 10:36:19;;;;;;;3.75;3.33;;;28.20;50.70;;;;;;5026751;28;20080;-45
2021/09/14 10:39:07;;;;;;;4.57;3.65;;;28.30;47.70;;;;;;5025848;28;20025;-46
2021/09/14 10:41:52;;;;;;;7.88;3.70;;;28.40;49.50;;;;;;5026552;28;20351;-45
2021/09/14 10:44:36;;;;;;;5.22;3.63;;;28.50;49.80;;;;;;5026832;28;20379;-45
2021/09/14 10:47:22;;;;;;;7.30;3.83;;;28.60;50.20;;;;;;5026020;28;20075;-45
2021/09/14 10:50:08;;;;;;;4.95;3.72;;;28.70;49.50;;;;;;5026146;28;20033;-45
2021/09/14 10:52:57;;;;;;;5.47;3.33;;;28.80;48.90;;;;;;5026183;28;20115;-44
2021/09/14 10:55:42;;;;;;;5.10;3.80;;;28.80;48.90;;;;;;5026030;28;20041;-44
2021/09/14 10:58:28;;;;;;;5.10;3.70;;;28.80;48.10;;;;;;5011324;28;20021;-46
2021/09/14 11:01:12;;;;;;;8.20;3.78;;;28.90;49.60;;;;;;5025953;28;20032;-44
2021/09/14 11:04:04;;;;;;;4.43;3.72;;;29.00;47.20;;;;;;5025872;28;20060;-41
2021/09/14 11:06:49;;;;;;;4.55;3.50;;;28.90;45.50;;;;;;5026111;28;20072;-42
2021/09/14 11:09:33;;;;;;;3.75;3.00;;;28.90;48.00;;;;;;5025749;28;20218;-43
2021/09/14 11:12:28;;;;;;;5.82;3.70;;;29.00;47.60;;;;;;5025364;28;20021;-43
2021/09/14 11:15:12;;;;;;;5.68;3.90;;;29.10;47.20;;;;;;5025588;28;20056;-42
2021/09/14 11:17:57;;;;;;;5.00;3.80;;;29.20;47.50;;;;;;5025793;28;20037;-42
2021/09/14 11:20:41;;;;;;;6.03;3.65;;;29.20;47.10;;;;;;5025963;28;20033;-41
2021/09/14 11:23:25;;;;;;;9.45;3.90;;;29.20;48.50;;;;;;5025508;28;20080;-44
2021/09/14 11:26:11;;;;;;;4.60;3.63;;;29.30;48.00;;;;;;5025807;28;20037;-41
2021/09/14 11:28:59;;;;;;;5.18;3.60;;;29.30;48.30;;;;;;5025439;28;20040;-44
2021/09/14 11:31:43;;;;;;;4.30;3.60;;;29.40;46.20;;;;;;5025426;28;20388;-45
2021/09/14 11:34:28;;;;;;;8.30;3.70;;;29.50;45.80;;;;;;5025546;28;20097;-43
2021/09/14 11:37:12;;;;;;;6.25;4.00;;;29.60;47.00;;;;;;5024473;28;20443;-43
2021/09/14 11:39:59;;;;;;;8.07;4.07;;;29.70;44.60;;;;;;5024692;28;20028;-44
2021/09/14 11:43:01;;;;;;;5.38;3.60;;;29.70;45.00;;;;;;5024557;28;20033;-43
2021/09/14 11:45:45;;;;;;;4.38;3.72;;;29.70;45.40;;;;;;5025286;28;20395;-46
2021/09/14 11:48:29;;;;;;;8.18;3.90;;;29.80;46.30;;;;;;5025181;28;20021;-44
2021/09/14 11:51:14;;;;;;;5.85;3.70;;;29.70;44.90;;;;;;5025510;28;20373;-47
2021/09/14 11:53:58;;;;;;;5.07;3.75;;;29.70;46.30;;;;;;5025190;28;20036;-44
2021/09/14 11:56:42;;;;;;;3.83;3.30;;;29.80;48.10;;;;;;5023962;28;20036;-44
2021/09/14 11:59:30;;;;;;;4.47;3.72;;;29.90;46.50;;;;;;5010078;28;20080;-43
2021/09/14 12:02:18;;;;;;;6.88;3.95;;;30.00;47.30;;;;;;5023820;28;20067;-44
2021/09/14 12:05:02;;;;;;;6.57;4.18;;;30.10;46.10;;;;;;5024855;28;20037;-48
2021/09/14 12:07:59;;;;;;;6.50;4.18;;;30.20;44.60;;;;;;5025254;28;20067;-45
2021/09/14 12:10:45;;;;;;;5.57;3.90;;;30.20;46.50;;;;;;5024616;28;20445;-46
2021/09/14 12:13:40;;;;;;;4.57;3.85;;;30.20;46.10;;;;;;5024613;28;20028;-45
2021/09/14 12:16:27;;;;;;;6.30;3.88;;;30.30;47.80;;;;;;5024504;28;20057;-45
2021/09/14 12:19:12;;;;;;;6.30;3.90;;;30.20;45.80;;;;;;5024586;28;20158;-47
2021/09/14 12:21:56;;;;;;;8.43;4.30;;;30.20;46.50;;;;;;5024561;28;20037;-44
2021/09/14 12:24:40;;;;;;;9.52;4.10;;;30.10;45.40;;;;;;5023740;28;20257;-44
2021/09/14 12:27:28;;;;;;;4.80;3.90;;;30.10;44.10;;;;;;5024849;28;20021;-44
2021/09/14 12:30:12;;;;;;;5.28;3.95;;;30.00;43.80;;;;;;5024372;28;20060;-45
2021/09/14 12:32:57;;;;;;;5.80;3.60;;;30.10;44.60;;;;;;5024382;28;20429;-44
2021/09/14 12:35:41;;;;;;;6.40;4.05;;;30.20;44.40;;;;;;5024599;28;20348;-45
2021/09/14 12:38:26;;;;;;;6.65;3.72;;;30.10;44.00;;;;;;5024607;28;20033;-44
2021/09/14 12:41:10;;;;;;;5.13;3.92;;;30.20;44.00;;;;;;5024610;28;20036;-47
2021/09/14 12:43:54;;;;;;;6.75;4.13;;;30.20;44.80;;;;;;5024150;28;20029;-46
2021/09/14 12:46:39;;;;;;;8.35;3.90;;;30.30;45.70;;;;;;5024096;28;20036;-43
2021/09/14 12:49:24;;;;;;;6.30;4.00;;;30.30;44.40;;;;;;5023796;28;20093;-43
2021/09/14 12:52:08;;;;;;;8.68;4.20;;;30.30;45.70;;;;;;5024201;28;20032;-43
2021/09/14 12:54:53;;;;;;;6.03;3.80;;;30.30;44.20;;;;;;5024032;28;20393;-43
2021/09/14 12:57:38;;;;;;;8.40;4.10;;;30.40;46.30;;;;;;5024113;28;20029;-43
2021/09/14 13:00:22;;;;;;;6.57;3.90;;;30.30;45.10;;;;;;5024411;28;20036;-43
2021/09/14 13:03:06;;;;;;;5.32;3.95;;;30.30;44.20;;;;;;5024047;28;20037;-43
2021/09/14 13:05:50;;;;;;;5.75;3.90;;;30.30;46.10;;;;;;5023950;28;20226;-45
2021/09/14 13:08:34;;;;;;;7.10;3.88;;;30.30;45.80;;;;;;5024385;28;20364;-45
2021/09/14 13:11:18;;;;;;;7.15;4.30;;;30.30;45.80;;;;;;5023923;28;20089;-44
2021/09/14 13:17:06;;;;;;;5.97;3.75;;;30.40;46.20;;;;;;5023866;28;20080;-44
2021/09/14 13:19:50;;;;;;;5.53;4.47;;;30.30;45.60;;;;;;5023690;28;20253;-43
2021/09/14 13:22:35;;;;;;;5.15;3.85;;;30.40;44.90;;;;;;5023599;28;20028;-43
2021/09/14 13:25:19;;;;;;;6.05;4.50;;;30.40;45.30;;;;;;5023832;28;20037;-43
2021/09/14 13:28:03;;;;;;;5.60;4.20;;;30.30;45.40;;;;;;5023820;28;20029;-43
2021/09/14 13:30:48;;;;;;;5.25;4.05;;;30.20;44.40;;;;;;5023593;28;20033;-44
2021/09/14 13:33:32;;;;;;;5.07;3.72;;;30.30;44.20;;;;;;5022608;28;20064;-44
2021/09/14 13:36:16;;;;;;;6.47;4.00;;;30.20;45.00;;;;;;5023931;28;20032;-43
2021/09/14 13:39:00;;;;;;;6.32;4.20;;;30.30;45.80;;;;;;5027682;28;20084;-43
2021/09/14 13:41:49;;;;;;;6.28;4.03;;;30.20;44.20;;;;;;5028001;28;20089;-45
2021/09/14 13:47:20;;;;;;;6.05;4.40;;;30.20;44.80;;;;;;5027286;28;20041;-45
2021/09/14 13:50:04;;;;;;;5.78;4.18;;;30.10;44.30;;;;;;5027818;28;20087;-45
2021/09/14 13:52:48;;;;;;;5.15;4.07;;;30.10;46.30;;;;;;5027359;28;20356;-43
2021/09/14 13:55:33;;;;;;;4.38;3.97;;;30.10;46.40;;;;;;5027017;28;20321;-44
2021/09/14 13:58:17;;;;;;;5.20;3.85;;;30.10;46.70;;;;;;5027182;28;20024;-44
2021/09/14 14:01:01;;;;;;;6.55;4.25;;;30.10;45.50;;;;;;5027351;28;20080;-45
2021/09/14 14:03:46;;;;;;;6.53;3.60;;;29.90;45.30;;;;;;5026934;28;20080;-44
2021/09/14 14:06:30;;;;;;;5.10;4.00;;;29.90;45.80;;;;;;5026968;28;20391;-46
2021/09/14 14:09:14;;;;;;;4.05;3.58;;;30.00;46.30;;;;;;5027428;28;20076;-43
2021/09/14 14:11:58;;;;;;;5.63;4.20;;;29.80;46.00;;;;;;5027120;28;20264;-45
2021/09/14 14:14:43;;;;;;;6.68;4.10;;;29.90;46.80;;;;;;5027074;28;20369;-46
2021/09/14 14:17:27;;;;;;;5.50;3.85;;;29.80;45.50;;;;;;5026896;28;20037;-43
2021/09/14 14:20:11;;;;;;;5.95;3.67;;;29.70;45.70;;;;;;5027248;28;20033;-45
2021/09/14 14:22:55;;;;;;;8.43;3.92;;;29.70;45.00;;;;;;5026916;28;20345;-43
2021/09/14 14:25:40;;;;;;;5.07;3.95;;;29.70;46.00;;;;;;5026967;28;20061;-44
2021/09/14 14:28:24;;;;;;;6.13;3.80;;;29.70;44.80;;;;;;5026606;28;20029;-43
2021/09/14 14:31:09;;;;;;;6.10;3.72;;;29.70;44.90;;;;;;5026577;28;20053;-43
2021/09/14 14:33:53;;;;;;;5.32;4.05;;;29.70;44.40;;;;;;5026646;28;20089;-42
2021/09/14 14:36:37;;;;;;;6.85;4.10;;;29.70;44.70;;;;;;5026341;28;20040;-44
2021/09/14 14:39:22;;;;;;;6.32;3.90;;;29.70;44.90;;;;;;5026772;28;20064;-43
2021/09/14 14:42:06;;;;;;;5.38;3.88;;;29.60;45.40;;;;;;5026571;28;20283;-46
2021/09/14 14:44:50;;;;;;;7.40;3.60;;;29.60;45.80;;;;;;5025390;28;20233;-43
2021/09/14 14:47:34;;;;;;;6.68;3.97;;;29.60;47.10;;;;;;5026651;28;20037;-43
2021/09/14 14:50:19;;;;;;;7.78;4.50;;;29.60;46.00;;;;;;5026639;28;20033;-43
2021/09/14 14:53:03;;;;;;;6.88;4.28;;;29.50;46.50;;;;;;5026376;28;20199;-43
2021/09/14 14:55:48;;;;;;;5.63;3.80;;;29.40;45.90;;;;;;5025874;28;20033;-44
2021/09/14 14:58:32;;;;;;;5.30;3.83;;;29.30;45.80;;;;;;5026330;28;20044;-42
2021/09/14 15:01:16;;;;;;;6.38;4.20;;;29.30;46.70;;;;;;5019850;28;20041;-44
2021/09/14 15:04:01;;;;;;;6.00;4.00;;;29.30;47.30;;;;;;5025946;28;20336;-42
2021/09/14 15:06:45;;;;;;;5.30;4.03;;;29.30;47.80;;;;;;5026023;28;20084;-43
2021/09/14 15:09:29;;;;;;;6.00;4.00;;;29.20;46.60;;;;;;5026321;28;20080;-43